Flight Briefing for CPX782

Departure Arrival
Incheon International Airport (RKSI)
Click to view FAA NOTAMS
Noi Bai International Airport (VVNB)
Click to view FAA NOTAMS
Departure Time Arrival Time
N/A N/A
Aircraft Distance
B767-300BDSF 1449nm
Departure METAR Arrival METAR
RKSI 180600Z 30008KT CAVOK 02/M08 Q1025 NOSIG VVNB 180600Z VRB04KT CAVOK 26/19 Q1009 NOSIG
Suggested Route
BOPTA1K BOPTA Z51 BEDES Y711 PONIK A593 PUD A599 JTN A599 PLT A599 GYA R474 LON R474 NOB


View recent IFR Routes data
Notes



Charts and Procedures

Charts for RKSI
No chart available
Charts for VVNB
No chart available

Ventusky Weather